createdAt,value
2023-03-07T00:00:36.617Z,58.70
2023-03-07T00:08:43.713Z,59.70
2023-03-07T00:16:53.146Z,60.80
2023-03-07T00:24:58.528Z,62.60
2023-03-07T00:33:07.070Z,62.90
2023-03-07T00:41:14.473Z,63.20
2023-03-07T00:49:23.040Z,63.10
2023-03-07T00:57:38.052Z,63.60
2023-03-07T01:05:46.052Z,63.60
2023-03-07T01:13:51.661Z,64.50
2023-03-07T01:21:59.942Z,64.20
2023-03-07T01:30:05.615Z,64.50
2023-03-07T01:38:13.940Z,65.00
2023-03-07T01:46:42.050Z,66.80
2023-03-07T01:54:53.930Z,71.30
2023-03-07T02:03:09.691Z,70.00
2023-03-07T02:11:21.013Z,69.00
2023-03-07T02:19:39.824Z,67.50
2023-03-07T02:27:51.115Z,67.60
2023-03-07T02:35:59.773Z,68.00
2023-03-07T02:44:08.656Z,68.40
2023-03-07T02:52:15.023Z,68.70
2023-03-07T03:00:24.416Z,68.70
2023-03-07T03:08:30.787Z,69.30
2023-03-07T03:16:39.916Z,69.70
2023-03-07T03:24:45.727Z,70.10
2023-03-07T03:32:57.221Z,70.70
2023-03-07T03:41:06.172Z,71.40
2023-03-07T03:49:16.947Z,70.80
2023-03-07T03:57:26.156Z,71.20
2023-03-07T04:05:36.258Z,70.80
2023-03-07T04:13:41.954Z,74.10
2023-03-07T04:21:50.176Z,73.50
2023-03-07T04:29:57.355Z,72.40
2023-03-07T04:38:05.931Z,72.50
2023-03-07T04:46:13.098Z,73.60
2023-03-07T04:54:21.858Z,73.30
2023-03-07T05:02:28.904Z,73.40
2023-03-07T05:10:38.866Z,73.10
2023-03-07T05:18:44.391Z,73.40
2023-03-07T05:26:52.609Z,73.00
2023-03-07T05:34:58.105Z,72.70
2023-03-07T05:43:06.936Z,72.30
2023-03-07T05:51:13.083Z,72.50
2023-03-07T05:59:22.038Z,72.10
2023-03-07T06:07:29.966Z,72.70
2023-03-07T06:15:38.073Z,72.50
2023-03-07T06:23:45.255Z,72.60
2023-03-07T06:31:57.489Z,72.50
2023-03-07T06:40:06.410Z,72.60
2023-03-07T06:48:18.048Z,72.40
2023-03-07T06:56:23.518Z,71.80
2023-03-07T07:04:32.278Z,71.60
2023-03-07T07:12:38.118Z,72.20
2023-03-07T07:20:46.464Z,71.80
2023-03-07T07:28:52.022Z,71.00
2023-03-07T07:37:00.183Z,69.00
2023-03-07T07:45:07.469Z,68.30
2023-03-07T07:53:17.131Z,67.00
2023-03-07T08:01:25.268Z,66.00
2023-03-07T08:09:34.532Z,65.10
2023-03-07T08:17:40.076Z,64.40
2023-03-07T08:25:51.638Z,63.30
2023-03-07T08:33:57.276Z,61.70
2023-03-07T08:42:05.326Z,62.20
2023-03-07T08:50:12.733Z,62.10
2023-03-07T08:58:20.825Z,61.20
2023-03-07T09:06:26.873Z,63.20
2023-03-07T09:14:34.811Z,62.20
2023-03-07T09:22:40.174Z,63.20
2023-03-07T09:30:57.660Z,64.00
2023-03-07T09:39:03.139Z,63.80
2023-03-07T09:47:33.782Z,64.20
2023-03-07T09:55:39.883Z,64.20
2023-03-07T10:03:56.212Z,63.30
2023-03-07T10:12:31.569Z,64.00
2023-03-07T10:20:48.603Z,64.80
2023-03-07T10:28:54.755Z,64.10
2023-03-07T10:37:09.191Z,64.80
2023-03-07T10:45:31.379Z,65.90
2023-03-07T10:53:42.254Z,66.20
2023-03-07T11:01:57.987Z,66.40
2023-03-07T11:10:35.748Z,65.50
2023-03-07T11:18:44.419Z,64.70
2023-03-07T11:26:57.278Z,65.90
2023-03-07T11:35:09.385Z,67.80
2023-03-07T11:43:24.810Z,69.00
2023-03-07T11:51:42.129Z,70.20
2023-03-07T12:00:22.990Z,71.60
2023-03-07T12:08:41.060Z,72.40
2023-03-07T12:16:56.200Z,73.50
2023-03-07T12:25:20.790Z,75.00
2023-03-07T12:33:33.550Z,75.20
2023-03-07T12:41:57.299Z,75.70
2023-03-07T12:50:12.273Z,77.00
2023-03-07T12:58:28.089Z,76.90
2023-03-07T13:06:35.502Z,78.30
2023-03-07T13:14:45.816Z,78.40
2023-03-07T13:23:14.715Z,76.80
2023-03-07T13:31:46.760Z,76.30
2023-03-07T13:40:07.234Z,75.10
2023-03-07T13:48:36.827Z,74.40
2023-03-07T13:56:46.583Z,72.20
2023-03-07T14:04:55.976Z,72.30
2023-03-07T14:13:30.237Z,72.80
2023-03-07T14:21:47.616Z,72.40
2023-03-07T14:29:58.005Z,72.00
2023-03-07T14:38:03.616Z,73.20
2023-03-07T14:46:25.366Z,73.20
2023-03-07T14:54:35.884Z,73.10
2023-03-07T15:02:49.388Z,73.20
2023-03-07T15:10:59.169Z,73.30
2023-03-07T15:19:12.433Z,73.50
2023-03-07T15:27:27.234Z,74.50
2023-03-07T15:35:35.325Z,75.80
2023-03-07T15:43:40.712Z,75.80
2023-03-07T15:51:48.888Z,75.80
2023-03-07T16:00:00.231Z,75.90
2023-03-07T16:08:16.054Z,76.10
2023-03-07T16:16:26.415Z,76.80
2023-03-07T16:24:34.466Z,76.80
2023-03-07T16:32:46.470Z,76.80
2023-03-07T16:40:54.657Z,77.60
2023-03-07T16:49:00.761Z,77.80
2023-03-07T16:57:09.997Z,78.00
2023-03-07T17:05:21.469Z,78.80
2023-03-07T17:13:30.642Z,79.00
2023-03-07T17:21:37.548Z,79.30
2023-03-07T17:29:50.170Z,79.80
2023-03-07T17:38:00.257Z,80.30
2023-03-07T17:46:11.338Z,80.20
2023-03-07T17:54:17.036Z,80.30
2023-03-07T18:02:26.069Z,80.10
2023-03-07T18:10:31.505Z,80.20
2023-03-07T18:18:58.299Z,80.50
2023-03-07T18:27:08.748Z,80.70
2023-03-07T18:35:18.378Z,80.80
2023-03-07T18:43:23.888Z,80.80
2023-03-07T18:51:32.409Z,80.90
2023-03-07T18:59:37.773Z,81.20
2023-03-07T19:07:45.925Z,81.30
2023-03-07T19:15:51.485Z,81.80
2023-03-07T19:24:01.665Z,82.10
2023-03-07T19:32:07.417Z,82.40
2023-03-07T19:40:16.715Z,82.40
2023-03-07T19:48:22.217Z,82.60
2023-03-07T19:56:34.862Z,82.70
2023-03-07T20:04:40.544Z,83.20
2023-03-07T20:12:48.941Z,83.70
2023-03-07T20:20:54.340Z,83.90
2023-03-07T20:29:03.344Z,84.90
2023-03-07T20:37:08.827Z,86.00
2023-03-07T20:45:17.007Z,87.00
2023-03-07T20:53:22.428Z,86.70
2023-03-07T21:01:32.604Z,84.70
2023-03-07T21:09:38.318Z,85.70
2023-03-07T21:17:46.440Z,85.60
2023-03-07T21:25:51.768Z,85.40
2023-03-07T21:34:01.212Z,85.40
2023-03-07T21:42:07.156Z,86.00
2023-03-07T21:50:15.551Z,87.60
2023-03-07T21:58:20.897Z,88.50
2023-03-07T22:06:30.067Z,87.90
2023-03-07T22:14:35.406Z,87.30
2023-03-07T22:22:43.294Z,86.80
2023-03-07T22:30:49.457Z,85.80
2023-03-07T22:38:59.274Z,86.00
2023-03-07T22:47:04.845Z,85.90
2023-03-07T22:55:13.337Z,85.40
2023-03-07T23:03:18.912Z,86.10
2023-03-07T23:11:28.649Z,85.90
2023-03-07T23:19:34.607Z,85.80
2023-03-07T23:27:42.779Z,86.10
2023-03-07T23:35:48.252Z,86.20
2023-03-07T23:44:00.391Z,86.30
2023-03-07T23:52:05.837Z,86.50
